Pagina principale
METAR-TAF:

METAR-TAF

Aeroporti :

Odiham, Inghilterra

latitudine: 51-14N, longitudine: 000-57W, altezza: 123 m

Osservazione

Il bollettino è stato emesso 27 minuti fa, alle 16:50 UTC
Vento 14 kt da est/nord-est
Temperature 21°C
Umidità 35%
Pressione 1021 hPa
Visibilità 10 km o più

METAR: EGVO 311650Z AUTO 07014KT 9999 NCD 21/05 Q1021

Ora: 18:17 (17:17 UTC)


TAF: mancante

Osservazioni e previsioni meteorologiche di più di 4000 aeroporti (messaggi METAR e TAF).

Le stazioni disponibili sono rappresentate dai dischi gialli e rossi sulla carta.

Puntare il mouse per vedere il nome della stazione.

Clicca sopra per visualizzare le osservazioni e previsioni meteorologiche.

Per cambiare la mappa : fare clic sui pulsanti verdi con una croce nera per ingrandire, il pulsante verde con un trattino per diminuire, o sulla freccia verde per le mappe adiacenti.


METAR-TAF: